Time;durP1;ratioP1;P1;durP2;ratioP2;P2;SDS_P1;SDS_P2;PMS_P1;PMS_P2;Temp;Humidity;BMP_temperature;BMP_pressure;BME280_temperature;BME280_humidity;BME280_pressure;Samples;Min_cycle;Max_cycle;Signal;HPM_P1;HPM_P2
2023/08/19 00:00:57;;;;;;;26.38;23.58;;;20.30;99.90;;;;;;4969324;28;20070;-82
2023/08/19 00:03:23;;;;;;;26.85;24.17;;;20.20;99.90;;;;;;4969091;28;20917;-81
2023/08/19 00:05:50;;;;;;;27.27;24.25;;;20.20;99.90;;;;;;4969073;28;20066;-81
2023/08/19 00:08:15;;;;;;;26.23;23.60;;;20.20;99.90;;;;;;4969218;28;20039;-82
2023/08/19 00:10:41;;;;;;;26.80;24.05;;;20.50;99.90;;;;;;4986850;28;20589;-82
2023/08/19 00:13:07;;;;;;;26.17;23.52;;;20.30;99.90;;;;;;4988748;28;20042;-82
2023/08/19 00:15:33;;;;;;;26.02;23.25;;;20.20;99.90;;;;;;4988016;28;20049;-82
2023/08/19 00:18:00;;;;;;;26.45;23.75;;;20.20;99.90;;;;;;4987653;28;20057;-82
2023/08/19 00:20:28;;;;;;;26.08;23.58;;;20.30;99.90;;;;;;4988356;28;20101;-82
2023/08/19 00:22:57;;;;;;;26.40;23.67;;;20.20;99.90;;;;;;4987028;28;20038;-82
2023/08/19 00:25:24;;;;;;;25.73;23.15;;;20.30;99.90;;;;;;4974075;28;20058;-81
2023/08/19 00:27:53;;;;;;;26.15;23.17;;;20.20;99.90;;;;;;4968994;28;20047;-82
2023/08/19 00:30:19;;;;;;;26.23;23.58;;;20.20;99.90;;;;;;4977366;28;20054;-82
2023/08/19 00:32:46;;;;;;;25.10;22.73;;;20.20;99.90;;;;;;4986673;28;20058;-81
2023/08/19 00:35:13;;;;;;;25.40;22.80;;;20.20;99.90;;;;;;4987928;28;20049;-82
2023/08/19 00:37:39;;;;;;;25.80;23.35;;;20.30;99.90;;;;;;4968993;28;20058;-82
2023/08/19 00:40:05;;;;;;;24.70;22.17;;;20.20;99.90;;;;;;4968212;28;20050;-82
2023/08/19 00:42:31;;;;;;;24.02;21.45;;;20.20;99.90;;;;;;4972678;28;20117;-82
2023/08/19 00:44:56;;;;;;;22.63;20.52;;;20.30;99.90;;;;;;4982479;28;20185;-81
2023/08/19 00:47:24;;;;;;;25.25;22.42;;;20.20;99.90;;;;;;4968767;28;20055;-82
2023/08/19 00:49:50;;;;;;;24.67;22.10;;;20.20;99.90;;;;;;4968547;28;20129;-82
2023/08/19 00:52:16;;;;;;;23.35;21.05;;;20.20;99.90;;;;;;4968887;28;20177;-82
2023/08/19 00:54:42;;;;;;;23.70;21.27;;;20.20;99.90;;;;;;4970928;28;20046;-81
2023/08/19 00:57:08;;;;;;;23.67;21.35;;;20.10;99.90;;;;;;4988036;28;20492;-82
2023/08/19 00:59:33;;;;;;;23.25;20.95;;;20.10;99.90;;;;;;4985940;28;20038;-81
2023/08/19 01:01:59;;;;;;;23.33;21.05;;;20.10;99.90;;;;;;4980922;28;20039;-81
2023/08/19 01:04:24;;;;;;;23.23;20.98;;;20.10;99.90;;;;;;4983080;28;20377;-82
2023/08/19 01:06:56;;;;;;;22.25;20.13;;;20.10;99.90;;;;;;4987985;28;20072;-81
2023/08/19 01:09:41;;;;;;;23.00;20.70;;;20.30;99.90;;;;;;4986366;28;20050;-81
2023/08/19 01:12:48;;;;;;;22.27;20.17;;;20.10;99.90;;;;;;4988287;28;20046;-82
2023/08/19 01:15:16;;;;;;;22.30;20.13;;;20.00;99.90;;;;;;4938647;29;20117;-81
2023/08/19 01:17:43;;;;;;;22.05;19.95;;;20.00;99.90;;;;;;4965223;28;20121;-81
2023/08/19 01:20:10;;;;;;;23.15;20.73;;;20.00;99.90;;;;;;4979767;28;20050;-81
2023/08/19 01:22:55;;;;;;;21.55;19.48;;;19.90;99.90;;;;;;4991185;28;20045;-82
2023/08/19 01:25:22;;;;;;;21.80;19.77;;;20.00;99.90;;;;;;4990932;28;20046;-82
2023/08/19 01:27:47;;;;;;;26.17;19.90;;;19.90;99.90;;;;;;4990396;28;20168;-82
2023/08/19 01:30:14;;;;;;;22.58;20.38;;;19.90;99.90;;;;;;4991780;28;20149;-82
2023/08/19 01:32:41;;;;;;;22.85;20.45;;;19.90;99.90;;;;;;4989859;28;20064;-82
2023/08/19 01:35:08;;;;;;;21.70;19.60;;;19.90;99.90;;;;;;4991312;28;20129;-82
2023/08/19 01:37:58;;;;;;;22.48;20.13;;;19.80;99.90;;;;;;4990058;28;20057;-82
2023/08/19 01:40:25;;;;;;;23.55;21.02;;;19.80;99.90;;;;;;4990124;28;20054;-81
2023/08/19 01:42:51;;;;;;;22.02;20.02;;;19.70;99.90;;;;;;4990054;28;20104;-82
2023/08/19 01:45:18;;;;;;;23.70;20.83;;;19.90;99.90;;;;;;4991483;28;20059;-82
2023/08/19 01:47:43;;;;;;;23.85;21.45;;;19.80;99.90;;;;;;4988677;28;20043;-82
2023/08/19 01:50:09;;;;;;;21.92;19.73;;;19.80;99.90;;;;;;4990932;28;20046;-81
2023/08/19 01:52:36;;;;;;;22.20;20.00;;;19.80;99.90;;;;;;4990930;28;20038;-82
2023/08/19 01:55:02;;;;;;;21.90;19.80;;;19.80;99.90;;;;;;4991210;28;20121;-82
2023/08/19 01:57:28;;;;;;;21.85;19.70;;;19.80;99.90;;;;;;4989601;28;20053;-82
2023/08/19 01:59:55;;;;;;;21.98;19.77;;;19.80;99.90;;;;;;4991182;28;20406;-82
2023/08/19 02:02:21;;;;;;;21.60;19.40;;;19.70;99.90;;;;;;4990943;28;20048;-82
2023/08/19 02:04:47;;;;;;;21.48;19.38;;;19.80;99.90;;;;;;4990578;28;20050;-82
2023/08/19 02:07:12;;;;;;;21.23;19.08;;;19.70;99.90;;;;;;4990690;28;20053;-82
2023/08/19 02:09:41;;;;;;;21.40;19.25;;;19.70;99.90;;;;;;4989322;28;20050;-82
2023/08/19 02:12:07;;;;;;;20.70;18.67;;;19.70;99.90;;;;;;4990038;28;20034;-82
2023/08/19 02:14:33;;;;;;;20.55;18.65;;;19.70;99.90;;;;;;4990041;28;20042;-81
2023/08/19 02:16:59;;;;;;;22.45;20.05;;;19.80;99.90;;;;;;4989122;28;20054;-81
2023/08/19 02:19:25;;;;;;;21.63;19.48;;;19.70;99.90;;;;;;4988590;28;20062;-82
2023/08/19 02:21:51;;;;;;;22.40;20.33;;;19.70;99.90;;;;;;4990683;28;20038;-82
2023/08/19 02:24:16;;;;;;;23.23;20.83;;;19.70;99.90;;;;;;4988221;28;20042;-82
2023/08/19 02:26:42;;;;;;;23.05;20.63;;;19.80;99.90;;;;;;4989584;28;20422;-81
2023/08/19 02:29:07;;;;;;;23.02;20.63;;;19.80;99.90;;;;;;4970205;28;20047;-82
2023/08/19 02:31:33;;;;;;;23.08;20.88;;;19.80;99.90;;;;;;4970677;28;20184;-82
2023/08/19 02:33:58;;;;;;;23.15;20.80;;;19.90;99.90;;;;;;4971067;28;20209;-82
2023/08/19 02:36:24;;;;;;;23.17;20.85;;;19.90;99.90;;;;;;4978748;28;20050;-82
2023/08/19 02:38:50;;;;;;;23.13;20.67;;;19.90;99.90;;;;;;4989000;28;20058;-82
2023/08/19 02:41:15;;;;;;;23.42;21.13;;;19.90;99.90;;;;;;4975618;28;20034;-82
2023/08/19 02:43:41;;;;;;;22.63;20.35;;;20.00;99.90;;;;;;4989462;28;20073;-81
2023/08/19 02:46:06;;;;;;;21.90;19.85;;;20.00;99.90;;;;;;4989966;28;20141;-82
2023/08/19 02:48:33;;;;;;;22.63;20.27;;;20.00;99.90;;;;;;4988587;28;20126;-81
2023/08/19 02:50:58;;;;;;;22.70;20.33;;;20.10;99.90;;;;;;4972672;28;20135;-82
2023/08/19 02:53:24;;;;;;;22.40;20.05;;;20.00;99.90;;;;;;4969867;28;20058;-82
2023/08/19 02:55:52;;;;;;;21.80;19.63;;;20.00;99.90;;;;;;4971724;28;20042;-82
2023/08/19 02:58:18;;;;;;;22.23;19.88;;;20.10;99.90;;;;;;4968956;28;20600;-82
2023/08/19 03:00:47;;;;;;;20.73;18.63;;;20.10;99.90;;;;;;4985167;28;20058;-82
2023/08/19 03:03:13;;;;;;;21.65;19.23;;;20.20;99.90;;;;;;4990035;28;20186;-82
2023/08/19 03:05:39;;;;;;;23.20;19.42;;;20.10;99.90;;;;;;4988451;28;20577;-82
2023/08/19 03:08:07;;;;;;;20.85;18.83;;;20.10;99.90;;;;;;4989923;28;20053;-83
2023/08/19 03:10:33;;;;;;;19.40;17.55;;;20.10;99.90;;;;;;4987776;28;20034;-83
2023/08/19 03:12:59;;;;;;;20.80;18.80;;;20.20;99.90;;;;;;4989737;28;20599;-82
2023/08/19 03:15:25;;;;;;;20.30;18.40;;;20.20;99.90;;;;;;4989624;28;20141;-82
2023/08/19 03:17:51;;;;;;;19.33;17.42;;;20.20;99.90;;;;;;4989251;28;20424;-82
2023/08/19 03:20:16;;;;;;;19.67;17.27;;;20.20;99.90;;;;;;4988829;28;20054;-82
2023/08/19 03:22:42;;;;;;;19.20;17.38;;;20.20;99.90;;;;;;4989434;28;20189;-82
2023/08/19 03:25:09;;;;;;;19.65;17.48;;;20.20;99.90;;;;;;4977267;28;20047;-82
2023/08/19 03:27:35;;;;;;;20.48;17.15;;;20.20;99.90;;;;;;4970091;28;20050;-81
2023/08/19 03:30:00;;;;;;;19.45;17.52;;;20.10;99.90;;;;;;4978139;28;20043;-82
2023/08/19 03:32:26;;;;;;;20.10;18.05;;;20.10;99.90;;;;;;4988036;28;20039;-81
2023/08/19 03:34:52;;;;;;;18.92;17.02;;;20.10;99.90;;;;;;4989066;28;20038;-82
2023/08/19 03:37:17;;;;;;;17.77;16.13;;;20.10;99.90;;;;;;4989245;28;20081;-82
2023/08/19 03:39:43;;;;;;;18.33;16.52;;;20.10;99.90;;;;;;4986660;28;20517;-82
2023/08/19 03:42:08;;;;;;;19.27;17.23;;;20.10;99.90;;;;;;4989041;28;20072;-82
2023/08/19 03:44:34;;;;;;;18.92;16.92;;;20.00;99.90;;;;;;4988376;28;20054;-82
2023/08/19 03:46:59;;;;;;;18.52;16.55;;;20.10;99.90;;;;;;4986854;28;20051;-82
2023/08/19 03:49:25;;;;;;;18.63;16.45;;;20.10;99.90;;;;;;4986831;28;20046;-82
2023/08/19 03:51:50;;;;;;;17.63;15.82;;;20.10;99.90;;;;;;4989012;28;20495;-83
2023/08/19 03:54:16;;;;;;;17.63;15.80;;;20.10;99.90;;;;;;4987766;28;20412;-83
2023/08/19 03:56:42;;;;;;;17.77;15.98;;;20.10;99.90;;;;;;4987951;28;20176;-83
2023/08/19 03:59:07;;;;;;;17.70;15.95;;;20.10;99.90;;;;;;4987339;28;20050;-82
2023/08/19 04:01:33;;;;;;;17.45;15.48;;;20.10;99.90;;;;;;4989042;28;20057;-82
2023/08/19 04:03:58;;;;;;;17.73;15.88;;;20.10;99.90;;;;;;4988596;28;20038;-83
2023/08/19 04:06:24;;;;;;;17.35;15.65;;;20.10;99.90;;;;;;4988232;28;20129;-83
2023/08/19 04:08:50;;;;;;;17.50;15.65;;;20.10;99.90;;;;;;4988569;28;20042;-83
2023/08/19 04:11:15;;;;;;;17.33;15.52;;;20.10;99.90;;;;;;4969876;28;20117;-83
2023/08/19 04:13:41;;;;;;;16.38;14.70;;;20.30;99.90;;;;;;4985787;28;20054;-83
2023/08/19 04:16:07;;;;;;;16.42;14.75;;;20.10;99.90;;;;;;4985874;28;20046;-82
2023/08/19 04:18:33;;;;;;;16.58;14.98;;;20.10;99.90;;;;;;4988690;28;20056;-82
2023/08/19 04:21:06;;;;;;;18.27;16.05;;;20.10;99.90;;;;;;4986848;28;20133;-82
2023/08/19 04:23:32;;;;;;;16.75;15.05;;;20.10;99.90;;;;;;4988439;28;20038;-82
2023/08/19 04:25:58;;;;;;;16.75;15.05;;;20.00;99.90;;;;;;4982065;28;20513;-82
2023/08/19 04:28:25;;;;;;;17.35;14.35;;;20.10;99.90;;;;;;4985606;28;20147;-82
2023/08/19 04:30:51;;;;;;;16.88;15.15;;;20.10;99.90;;;;;;4988644;28;20120;-82
2023/08/19 04:33:17;;;;;;;17.33;15.40;;;20.10;99.90;;;;;;4988300;28;20050;-83
2023/08/19 04:35:43;;;;;;;17.40;15.27;;;20.10;99.90;;;;;;4987295;28;20405;-83
2023/08/19 04:38:08;;;;;;;16.90;15.13;;;20.10;99.90;;;;;;4968447;28;20395;-83
2023/08/19 04:40:35;;;;;;;15.90;14.40;;;20.20;99.90;;;;;;4967578;28;20050;-83
2023/08/19 04:43:00;;;;;;;16.88;15.10;;;20.20;99.90;;;;;;4968746;28;20062;-82
2023/08/19 04:45:26;;;;;;;17.38;15.30;;;20.30;99.90;;;;;;4968791;28;20054;-83
2023/08/19 04:47:51;;;;;;;16.75;15.02;;;20.20;99.90;;;;;;4985155;28;20056;-82
2023/08/19 04:50:19;;;;;;;18.83;15.75;;;20.30;99.90;;;;;;4988702;28;20050;-83
2023/08/19 04:52:44;;;;;;;16.15;14.45;;;20.30;99.90;;;;;;4972251;28;20524;-82
2023/08/19 04:55:10;;;;;;;15.45;13.95;;;20.30;99.90;;;;;;4972958;28;20082;-83
2023/08/19 04:57:36;;;;;;;16.38;13.88;;;20.40;99.90;;;;;;4986764;28;20058;-83
2023/08/19 05:00:03;;;;;;;16.65;14.38;;;20.40;99.90;;;;;;4992208;28;20050;-81
2023/08/19 05:02:29;;;;;;;17.00;14.43;;;20.50;99.90;;;;;;4991722;28;20101;-81
2023/08/19 05:04:54;;;;;;;15.45;13.27;;;20.70;99.90;;;;;;4974474;28;20120;-81
2023/08/19 05:07:20;;;;;;;14.93;13.43;;;20.70;99.90;;;;;;4988635;28;20459;-81
2023/08/19 05:09:46;;;;;;;16.15;13.57;;;20.90;99.90;;;;;;4991131;28;20057;-81
2023/08/19 05:12:12;;;;;;;14.25;12.85;;;20.90;99.90;;;;;;4991883;28;20053;-81
2023/08/19 05:14:37;;;;;;;16.48;13.27;;;20.80;99.90;;;;;;4990967;28;20054;-82
2023/08/19 05:17:03;;;;;;;13.13;11.73;;;20.90;99.90;;;;;;4973599;28;20409;-81
2023/08/19 05:19:31;;;;;;;14.88;13.07;;;20.90;99.90;;;;;;4989328;28;20046;-81
2023/08/19 05:21:56;;;;;;;14.00;12.60;;;21.20;99.90;;;;;;4980624;28;20082;-81
2023/08/19 05:24:22;;;;;;;12.20;11.10;;;20.90;99.90;;;;;;4970705;28;20138;-82
2023/08/19 05:26:48;;;;;;;13.40;12.20;;;20.90;99.90;;;;;;4976476;28;20043;-81
2023/08/19 05:29:13;;;;;;;13.68;11.65;;;20.90;99.90;;;;;;4988972;28;20517;-81
2023/08/19 05:31:39;;;;;;;14.35;12.13;;;20.90;99.90;;;;;;4985320;28;20042;-80
2023/08/19 05:34:09;;;;;;;13.30;12.07;;;20.90;99.90;;;;;;4987954;28;20158;-82
2023/08/19 05:36:34;;;;;;;13.43;12.05;;;21.00;99.90;;;;;;4980284;28;20073;-82
2023/08/19 05:39:00;;;;;;;12.52;11.32;;;20.90;99.90;;;;;;4988412;28;20492;-82
2023/08/19 05:41:26;;;;;;;12.25;11.05;;;20.90;99.90;;;;;;4990319;28;20038;-81
2023/08/19 05:43:52;;;;;;;12.68;11.38;;;21.10;99.90;;;;;;4990599;28;20101;-82
2023/08/19 05:46:17;;;;;;;15.40;11.98;;;21.00;99.90;;;;;;4990739;28;20473;-83
2023/08/19 05:48:43;;;;;;;13.55;12.15;;;21.00;99.90;;;;;;4991406;28;20082;-83
2023/08/19 05:51:09;;;;;;;13.18;11.68;;;21.00;99.90;;;;;;4991433;28;20077;-82
2023/08/19 05:53:34;;;;;;;13.07;11.73;;;21.00;99.90;;;;;;4990701;28;20124;-82
2023/08/19 05:56:01;;;;;;;13.00;11.63;;;21.10;99.90;;;;;;4989505;28;20057;-83
2023/08/19 05:58:26;;;;;;;12.65;11.45;;;21.30;99.90;;;;;;4990470;28;20050;-83
2023/08/19 06:01:06;;;;;;;14.35;10.95;;;21.10;99.90;;;;;;4991329;28;20038;-83
2023/08/19 06:03:32;;;;;;;12.45;11.23;;;21.10;99.90;;;;;;4989505;28;20133;-83
2023/08/19 06:06:04;;;;;;;11.88;10.70;;;21.20;99.90;;;;;;4990663;28;20137;-82
2023/08/19 06:08:29;;;;;;;16.02;11.77;;;21.10;99.90;;;;;;4989863;28;20085;-83
2023/08/19 06:11:02;;;;;;;11.85;10.77;;;21.20;99.90;;;;;;4988196;28;20042;-83
2023/08/19 06:13:29;;;;;;;11.32;10.23;;;21.20;99.90;;;;;;4988710;28;20362;-82
2023/08/19 06:15:55;;;;;;;11.85;10.75;;;21.20;99.90;;;;;;4972468;28;20117;-85
2023/08/19 06:18:21;;;;;;;12.05;10.55;;;21.30;99.90;;;;;;5002192;28;20057;-82
2023/08/19 06:20:49;;;;;;;12.50;11.00;;;21.30;99.90;;;;;;4985909;28;20046;-81
2023/08/19 06:23:14;;;;;;;11.75;10.57;;;21.30;99.90;;;;;;4988938;28;20050;-80
2023/08/19 06:25:40;;;;;;;15.32;11.13;;;21.30;99.90;;;;;;4989057;28;20038;-81
2023/08/19 06:28:05;;;;;;;11.07;9.98;;;21.40;99.90;;;;;;4980315;28;20401;-81
2023/08/19 06:30:31;;;;;;;11.60;10.13;;;21.40;99.90;;;;;;4980841;28;20115;-81
2023/08/19 06:32:57;;;;;;;10.80;9.80;;;21.40;99.90;;;;;;4974559;28;20081;-82
2023/08/19 06:35:23;;;;;;;11.98;10.07;;;21.40;99.90;;;;;;4980737;28;20054;-83
2023/08/19 06:37:54;;;;;;;12.93;10.27;;;21.40;99.90;;;;;;4988797;28;20049;-83
2023/08/19 06:40:21;;;;;;;10.77;9.68;;;21.40;99.90;;;;;;4988622;28;20049;-83
2023/08/19 06:42:49;;;;;;;10.65;9.65;;;21.40;99.90;;;;;;4983335;28;20509;-83
2023/08/19 06:45:16;;;;;;;9.20;8.32;;;21.40;99.90;;;;;;4986949;28;20050;-82
2023/08/19 06:47:42;;;;;;;10.57;9.50;;;21.50;99.90;;;;;;4980491;28;20074;-83
2023/08/19 06:50:08;;;;;;;10.32;9.35;;;21.50;99.90;;;;;;4986702;28;20163;-83
2023/08/19 06:52:34;;;;;;;11.93;10.30;;;21.50;99.90;;;;;;4987831;28;20053;-84
2023/08/19 06:55:00;;;;;;;11.77;9.40;;;21.60;99.90;;;;;;4982595;28;20051;-83
2023/08/19 06:57:35;;;;;;;10.05;9.15;;;21.60;99.90;;;;;;4987340;28;20097;-83
2023/08/19 07:00:10;;;;;;;9.73;8.50;;;21.70;99.90;;;;;;4988121;28;20385;-83
2023/08/19 07:02:37;;;;;;;10.93;9.30;;;21.70;99.90;;;;;;4990065;28;20054;-83
2023/08/19 07:05:08;;;;;;;10.05;9.15;;;21.80;99.90;;;;;;4989949;28;20046;-83
2023/08/19 07:07:36;;;;;;;10.13;9.10;;;21.80;99.90;;;;;;4989942;28;20054;-83
2023/08/19 07:10:05;;;;;;;15.82;9.10;;;21.90;99.90;;;;;;4988720;28;20089;-83
2023/08/19 07:12:31;;;;;;;10.00;8.60;;;22.00;99.90;;;;;;4989595;28;20058;-83
2023/08/19 07:14:57;;;;;;;9.65;8.48;;;22.00;99.90;;;;;;4988897;28;20783;-86
2023/08/19 07:17:25;;;;;;;10.63;8.75;;;22.00;99.90;;;;;;4989310;28;20046;-82
2023/08/19 07:19:54;;;;;;;9.32;8.32;;;22.00;99.90;;;;;;4989336;28;20046;-83
2023/08/19 07:22:21;;;;;;;11.23;9.18;;;22.10;99.90;;;;;;4988289;28;20772;-83
2023/08/19 07:24:51;;;;;;;10.05;8.50;;;22.10;99.90;;;;;;4987037;28;20042;-83
2023/08/19 07:27:19;;;;;;;8.90;8.00;;;22.30;99.90;;;;;;4987630;28;20501;-82
2023/08/19 07:29:50;;;;;;;12.25;8.82;;;22.20;99.90;;;;;;4989317;28;20408;-82
2023/08/19 07:32:16;;;;;;;10.70;8.55;;;22.20;99.90;;;;;;4989442;28;20077;-82
2023/08/19 07:34:42;;;;;;;9.07;8.20;;;22.20;99.90;;;;;;4989622;28;20081;-83
2023/08/19 07:37:08;;;;;;;8.93;7.95;;;22.30;99.90;;;;;;4989226;28;20085;-83
2023/08/19 07:39:34;;;;;;;8.80;7.90;;;22.30;99.90;;;;;;4987814;28;20046;-82
2023/08/19 07:41:59;;;;;;;9.38;7.72;;;22.40;99.90;;;;;;4988925;28;20101;-83
2023/08/19 07:44:25;;;;;;;8.48;7.13;;;22.50;99.90;;;;;;4988803;28;20093;-82
2023/08/19 07:46:50;;;;;;;9.00;7.18;;;22.60;99.90;;;;;;4988675;28;20050;-83
2023/08/19 07:49:16;;;;;;;8.15;7.35;;;22.70;99.90;;;;;;4988877;28;20042;-84
2023/08/19 07:51:42;;;;;;;8.30;7.35;;;22.70;99.90;;;;;;4990061;28;20728;-83
2023/08/19 07:54:07;;;;;;;8.38;7.13;;;22.80;99.90;;;;;;4988701;28;20038;-83
2023/08/19 07:56:33;;;;;;;10.57;7.20;;;22.90;99.90;;;;;;4989212;28;20409;-83
2023/08/19 07:58:58;;;;;;;7.40;6.63;;;23.00;99.90;;;;;;4987283;28;20053;-84
2023/08/19 08:01:24;;;;;;;12.32;7.63;;;23.00;99.90;;;;;;4987686;28;20050;-83
2023/08/19 08:03:49;;;;;;;8.23;6.80;;;23.10;99.90;;;;;;4986153;28;20043;-84
2023/08/19 08:06:15;;;;;;;7.65;6.85;;;23.20;99.90;;;;;;4982106;28;20134;-84
2023/08/19 08:08:41;;;;;;;9.10;7.07;;;23.30;99.90;;;;;;4986861;28;20046;-84
2023/08/19 08:11:08;;;;;;;7.43;6.68;;;23.30;99.90;;;;;;4984689;28;20046;-83
2023/08/19 08:13:33;;;;;;;9.13;6.85;;;23.40;99.90;;;;;;4985849;28;20461;-83
2023/08/19 08:16:00;;;;;;;7.93;7.22;;;23.50;99.90;;;;;;4989048;28;20129;-82
2023/08/19 08:18:25;;;;;;;8.93;6.57;;;23.70;99.90;;;;;;4988615;28;20047;-82
2023/08/19 08:20:51;;;;;;;9.48;7.25;;;23.70;99.90;;;;;;4988431;28;20081;-84
2023/08/19 08:23:16;;;;;;;7.88;7.07;;;23.90;99.90;;;;;;4987455;28;20042;-81
2023/08/19 08:25:42;;;;;;;7.00;6.28;;;24.00;99.90;;;;;;4987685;28;20043;-81
2023/08/19 08:28:08;;;;;;;7.57;6.88;;;24.20;99.90;;;;;;4969690;28;20038;-81
2023/08/19 08:30:33;;;;;;;9.32;6.53;;;24.40;99.90;;;;;;4985721;28;20034;-83
2023/08/19 08:32:59;;;;;;;15.15;7.13;;;24.50;99.90;;;;;;4987645;28;20165;-83
2023/08/19 08:35:24;;;;;;;9.73;6.60;;;24.70;99.90;;;;;;4986050;28;20050;-82
2023/08/19 08:37:50;;;;;;;10.13;6.22;;;24.80;99.90;;;;;;4986869;28;20046;-83
2023/08/19 08:40:15;;;;;;;10.20;6.32;;;24.90;99.90;;;;;;4986889;28;20456;-82
2023/08/19 08:42:43;;;;;;;6.55;5.95;;;25.10;99.90;;;;;;4989238;28;20125;-82
2023/08/19 08:45:11;;;;;;;10.23;6.38;;;25.20;99.90;;;;;;4986972;28;20046;-81
2023/08/19 08:47:39;;;;;;;12.40;6.68;;;25.30;99.90;;;;;;4988460;28;20112;-82
2023/08/19 08:50:05;;;;;;;9.15;5.70;;;25.50;99.90;;;;;;4987706;28;20464;-82
2023/08/19 08:52:31;;;;;;;6.53;5.47;;;25.60;99.90;;;;;;4988560;28;20397;-82
2023/08/19 08:54:59;;;;;;;9.88;5.75;;;25.70;99.90;;;;;;4983549;28;20054;-82
2023/08/19 08:57:24;;;;;;;6.88;5.25;;;25.80;99.90;;;;;;4988090;28;20042;-82
2023/08/19 08:59:50;;;;;;;10.43;5.25;;;25.80;99.90;;;;;;4986794;28;20046;-82
2023/08/19 09:02:18;;;;;;;16.67;7.20;;;26.00;99.90;;;;;;4981284;28;20042;-82
2023/08/19 09:04:45;;;;;;;11.10;5.82;;;26.00;99.90;;;;;;4988080;28;20095;-81
2023/08/19 09:07:17;;;;;;;10.75;5.55;;;26.00;99.90;;;;;;4986205;28;20072;-82
2023/08/19 09:09:46;;;;;;;6.97;5.75;;;26.00;99.90;;;;;;4987324;28;20077;-82
2023/08/19 09:12:12;;;;;;;7.20;5.60;;;26.10;99.90;;;;;;4977969;28;20386;-82
2023/08/19 09:14:45;;;;;;;7.20;5.63;;;26.20;99.90;;;;;;4986746;28;20126;-83
2023/08/19 09:17:14;;;;;;;6.43;5.50;;;26.20;99.90;;;;;;4984735;28;20050;-82
2023/08/19 09:19:40;;;;;;;6.57;5.80;;;26.20;99.90;;;;;;4971555;28;20168;-82
2023/08/19 09:22:19;;;;;;;6.15;5.30;;;26.20;99.90;;;;;;4987482;28;20054;-82
2023/08/19 09:24:45;;;;;;;10.70;5.72;;;26.30;99.90;;;;;;4988614;28;20137;-81
2023/08/19 09:27:11;;;;;;;7.20;5.70;;;26.40;99.90;;;;;;4989228;28;20093;-82
2023/08/19 09:29:37;;;;;;;8.65;5.43;;;26.60;99.90;;;;;;4989008;28;20504;-82
2023/08/19 09:32:03;;;;;;;9.18;5.55;;;26.80;99.90;;;;;;4988948;28;20046;-82
2023/08/19 09:34:29;;;;;;;5.97;5.30;;;26.90;99.90;;;;;;4986994;28;20054;-82
2023/08/19 09:36:57;;;;;;;9.38;5.47;;;26.80;99.90;;;;;;4988297;28;20354;-82
2023/08/19 09:39:32;;;;;;;5.43;4.57;;;26.80;99.90;;;;;;4990945;28;20042;-82
2023/08/19 09:41:58;;;;;;;6.70;4.72;;;26.80;99.90;;;;;;4974344;28;20128;-82
2023/08/19 09:44:27;;;;;;;8.13;5.10;;;26.90;99.90;;;;;;4989069;28;20077;-84
2023/08/19 09:46:54;;;;;;;7.15;5.45;;;26.90;99.90;;;;;;4988902;28;20154;-82
2023/08/19 09:49:23;;;;;;;5.68;4.78;;;26.90;99.90;;;;;;4986719;28;20047;-82
2023/08/19 09:51:54;;;;;;;8.35;5.40;;;27.00;99.90;;;;;;4988456;28;20121;-82
2023/08/19 09:54:21;;;;;;;6.38;4.72;;;27.10;99.90;;;;;;4983393;28;20129;-82
2023/08/19 09:56:57;;;;;;;5.65;4.95;;;27.30;99.90;;;;;;4989537;28;20082;-82
2023/08/19 09:59:24;;;;;;;6.57;5.72;;;27.30;99.90;;;;;;4986969;28;20038;-84
2023/08/19 10:01:51;;;;;;;7.35;5.25;;;27.30;99.90;;;;;;4973805;28;20515;-84
2023/08/19 10:04:18;;;;;;;7.45;5.35;;;27.30;99.90;;;;;;4989187;28;20050;-82
2023/08/19 10:06:49;;;;;;;6.47;5.05;;;27.20;99.90;;;;;;4968307;28;20053;-83
2023/08/19 10:09:23;;;;;;;7.10;5.57;;;27.10;99.90;;;;;;4970551;28;20051;-84
2023/08/19 10:11:52;;;;;;;7.97;5.28;;;27.10;99.90;;;;;;4987872;28;20520;-83
2023/08/19 10:14:23;;;;;;;7.90;5.20;;;27.10;99.90;;;;;;4989547;28;20038;-82
2023/08/19 10:16:50;;;;;;;6.15;5.50;;;27.20;99.90;;;;;;4987200;28;20045;-83
2023/08/19 10:19:22;;;;;;;8.02;5.50;;;27.20;99.90;;;;;;4973534;28;20047;-83
2023/08/19 10:21:49;;;;;;;6.00;5.15;;;27.30;99.90;;;;;;4982853;28;20097;-83
2023/08/19 10:24:18;;;;;;;9.43;6.38;;;27.20;99.90;;;;;;4973082;28;20047;-83
2023/08/19 10:26:48;;;;;;;7.18;5.78;;;27.20;99.90;;;;;;4976553;28;20504;-83
2023/08/19 10:29:14;;;;;;;10.52;6.20;;;27.00;99.90;;;;;;4988622;28;20050;-84
2023/08/19 10:31:42;;;;;;;6.95;6.03;;;26.80;99.90;;;;;;4986293;28;20042;-84
2023/08/19 10:34:23;;;;;;;6.05;5.55;;;26.70;99.90;;;;;;4983733;28;20449;-84
2023/08/19 10:37:06;;;;;;;8.60;6.10;;;26.60;99.90;;;;;;4988313;28;20039;-84
2023/08/19 10:39:31;;;;;;;9.80;6.65;;;26.50;99.90;;;;;;4985595;28;20042;-83
2023/08/19 10:41:57;;;;;;;9.90;6.20;;;26.30;99.90;;;;;;4974368;28;20077;-83
2023/08/19 10:44:31;;;;;;;7.75;6.50;;;26.20;99.90;;;;;;4979415;28;20118;-83
2023/08/19 10:47:10;;;;;;;8.95;6.57;;;26.10;99.90;;;;;;4989581;28;20047;-83
2023/08/19 10:49:37;;;;;;;7.70;6.80;;;26.00;99.90;;;;;;4973614;28;20097;-83
2023/08/19 10:52:06;;;;;;;7.70;6.68;;;25.90;99.90;;;;;;4988150;28;20081;-82
2023/08/19 10:54:38;;;;;;;7.88;6.95;;;25.80;99.90;;;;;;4987048;28;20650;-83
2023/08/19 10:57:22;;;;;;;7.88;6.70;;;25.80;99.90;;;;;;4985619;28;20047;-83
2023/08/19 10:59:52;;;;;;;7.97;6.53;;;25.80;99.90;;;;;;4984863;28;20448;-83
2023/08/19 11:02:18;;;;;;;9.52;6.85;;;25.80;99.90;;;;;;4981675;28;20043;-83
2023/08/19 11:04:47;;;;;;;7.63;6.93;;;25.90;99.90;;;;;;4987677;28;20039;-83
2023/08/19 11:07:13;;;;;;;7.75;6.82;;;25.90;99.90;;;;;;4981779;28;20512;-83
2023/08/19 11:09:44;;;;;;;9.60;7.25;;;25.90;99.90;;;;;;4972469;28;20057;-83
2023/08/19 11:12:11;;;;;;;11.55;7.57;;;26.00;99.90;;;;;;4962213;28;20038;-83
2023/08/19 11:14:38;;;;;;;10.65;7.38;;;26.20;99.90;;;;;;4988302;28;20042;-83
2023/08/19 11:17:04;;;;;;;8.50;7.72;;;26.40;99.90;;;;;;4988781;28;20688;-83
2023/08/19 11:19:31;;;;;;;9.02;8.13;;;26.60;99.90;;;;;;4988678;28;20690;-83
2023/08/19 11:21:57;;;;;;;9.07;8.07;;;26.80;99.90;;;;;;4989395;28;20496;-84
2023/08/19 11:24:36;;;;;;;10.18;8.13;;;27.00;99.90;;;;;;4989106;28;20034;-83
2023/08/19 11:27:02;;;;;;;9.95;8.80;;;27.10;99.90;;;;;;4981546;28;20450;-83
2023/08/19 11:29:28;;;;;;;9.07;7.88;;;27.20;99.90;;;;;;4976228;28;20130;-83
2023/08/19 11:31:55;;;;;;;12.98;9.25;;;27.30;99.90;;;;;;4970321;28;20035;-83
2023/08/19 11:34:21;;;;;;;13.05;9.07;;;27.30;99.90;;;;;;4970008;28;20394;-83
2023/08/19 11:36:47;;;;;;;12.30;9.02;;;27.20;99.90;;;;;;4969532;28;20097;-84
2023/08/19 11:39:12;;;;;;;9.65;8.75;;;27.20;99.90;;;;;;4969450;28;20047;-83
2023/08/19 11:41:39;;;;;;;9.93;8.63;;;27.20;99.90;;;;;;4969656;28;20147;-83
2023/08/19 11:44:06;;;;;;;11.35;8.80;;;27.30;99.90;;;;;;4983818;28;20042;-83
2023/08/19 11:46:34;;;;;;;13.90;10.00;;;27.30;99.90;;;;;;4988497;28;20588;-83
2023/08/19 11:49:06;;;;;;;10.35;9.18;;;27.50;99.90;;;;;;4988953;28;20092;-83
2023/08/19 11:51:31;;;;;;;11.93;10.13;;;27.60;99.90;;;;;;4988459;28;20645;-83
2023/08/19 11:54:08;;;;;;;15.98;10.57;;;27.70;99.90;;;;;;4988600;28;20136;-83
2023/08/19 11:56:48;;;;;;;12.13;10.20;;;28.00;99.90;;;;;;4986994;28;20082;-83
2023/08/19 11:59:13;;;;;;;10.98;9.95;;;28.30;99.90;;;;;;4988342;28;20222;-83
2023/08/19 12:01:39;;;;;;;11.65;10.13;;;28.60;99.90;;;;;;4988414;28;20046;-84
2023/08/19 12:04:15;;;;;;;13.63;12.23;;;28.60;99.90;;;;;;4989088;28;20049;-84
2023/08/19 12:06:42;;;;;;;13.75;12.32;;;28.80;99.90;;;;;;4988582;28;20050;-84
2023/08/19 12:09:08;;;;;;;16.35;13.40;;;28.80;99.90;;;;;;4988843;28;20518;-83
2023/08/19 12:11:35;;;;;;;13.93;12.70;;;28.70;99.90;;;;;;4988428;28;20149;-84
2023/08/19 12:14:01;;;;;;;16.85;13.13;;;28.70;99.90;;;;;;4988814;28;20054;-84
2023/08/19 12:16:27;;;;;;;15.77;13.52;;;28.70;99.90;;;;;;4988577;28;20118;-83
2023/08/19 12:18:52;;;;;;;14.90;13.60;;;28.60;99.90;;;;;;4988538;28;20042;-83
2023/08/19 12:21:18;;;;;;;15.90;14.13;;;28.30;99.90;;;;;;4988605;28;20034;-82
2023/08/19 12:23:44;;;;;;;22.70;17.05;;;28.10;99.90;;;;;;4988210;28;20097;-83
2023/08/19 12:26:09;;;;;;;18.02;16.33;;;27.80;99.90;;;;;;4988712;28;20043;-82
2023/08/19 12:28:35;;;;;;;18.88;17.15;;;27.70;99.90;;;;;;4986649;28;20501;-82
2023/08/19 12:31:00;;;;;;;21.80;19.48;;;27.50;99.90;;;;;;4988200;28;20043;-84
2023/08/19 12:33:27;;;;;;;25.48;22.20;;;27.30;99.90;;;;;;4988244;28;20057;-84